sensor_id;sensor_type;location;lat;lon;timestamp;pressure;altitude;pressure_sealevel;temperature;humidity
58739;BME280;44512;53.046;18.604;2023-12-04T00:02:00;102084.97;;;0.16;70.51
58739;BME280;44512;53.046;18.604;2023-12-04T00:12:29;102095.82;;;0.13;70.53
58739;BME280;44512;53.046;18.604;2023-12-04T00:22:57;102104.95;;;0.09;70.50
58739;BME280;44512;53.046;18.604;2023-12-04T00:33:26;102112.18;;;0.07;70.54
58739;BME280;44512;53.046;18.604;2023-12-04T00:43:54;102103.42;;;0.05;70.53
58739;BME280;44512;53.046;18.604;2023-12-04T00:54:22;102118.25;;;0.09;70.49
58739;BME280;44512;53.046;18.604;2023-12-04T01:04:51;102129.87;;;0.08;70.44
58739;BME280;44512;53.046;18.604;2023-12-04T01:15:19;102123.68;;;0.07;70.45
58739;BME280;44512;53.046;18.604;2023-12-04T01:25:48;102133.27;;;0.10;70.46
58739;BME280;44512;53.046;18.604;2023-12-04T01:36:16;102132.41;;;0.09;70.51
58739;BME280;44512;53.046;18.604;2023-12-04T01:46:45;102123.59;;;0.09;70.53
58739;BME280;44512;53.046;18.604;2023-12-04T01:57:13;102137.11;;;0.06;70.66
58739;BME280;44512;53.046;18.604;2023-12-04T02:07:42;102137.18;;;0.04;70.75
58739;BME280;44512;53.046;18.604;2023-12-04T02:18:10;102144.31;;;0.04;70.81
58739;BME280;44512;53.046;18.604;2023-12-04T02:28:39;102137.47;;;-0.01;70.92
58739;BME280;44512;53.046;18.604;2023-12-04T02:39:07;102137.58;;;-0.02;70.94
58739;BME280;44512;53.046;18.604;2023-12-04T02:49:35;102133.02;;;0.00;71.01
58739;BME280;44512;53.046;18.604;2023-12-04T03:00:05;102146.63;;;-0.05;70.94
58739;BME280;44512;53.046;18.604;2023-12-04T03:10:32;102151.95;;;-0.05;71.02
58739;BME280;44512;53.046;18.604;2023-12-04T03:21:01;102153.66;;;-0.04;70.99
58739;BME280;44512;53.046;18.604;2023-12-04T03:31:29;102160.02;;;-0.06;71.05
58739;BME280;44512;53.046;18.604;2023-12-04T03:41:58;102155.29;;;-0.15;71.03
58739;BME280;44512;53.046;18.604;2023-12-04T03:52:26;102175.13;;;-0.07;71.03
58739;BME280;44512;53.046;18.604;2023-12-04T04:02:55;102177.61;;;-0.04;70.93
58739;BME280;44512;53.046;18.604;2023-12-04T04:13:23;102173.13;;;-0.03;70.87
58739;BME280;44512;53.046;18.604;2023-12-04T04:23:52;102167.63;;;0.00;70.76
58739;BME280;44512;53.046;18.604;2023-12-04T04:34:21;102174.55;;;0.03;70.65
58739;BME280;44512;53.046;18.604;2023-12-04T04:44:48;102174.45;;;0.04;70.47
58739;BME280;44512;53.046;18.604;2023-12-04T04:55:17;102179.88;;;0.03;70.32
58739;BME280;44512;53.046;18.604;2023-12-04T05:05:45;102171.89;;;0.03;70.19
58739;BME280;44512;53.046;18.604;2023-12-04T05:16:14;102181.80;;;0.01;70.00
58739;BME280;44512;53.046;18.604;2023-12-04T05:26:43;102186.16;;;0.02;69.93
58739;BME280;44512;53.046;18.604;2023-12-04T05:37:11;102188.72;;;0.03;69.78
58739;BME280;44512;53.046;18.604;2023-12-04T05:47:39;102195.00;;;0.02;69.62
58739;BME280;44512;53.046;18.604;2023-12-04T05:58:08;102183.69;;;-0.02;69.49
58739;BME280;44512;53.046;18.604;2023-12-04T06:08:36;102166.68;;;0.01;69.38
58739;BME280;44512;53.046;18.604;2023-12-04T06:19:04;102180.95;;;0.00;69.24
58739;BME280;44512;53.046;18.604;2023-12-04T06:29:34;102187.48;;;-0.06;69.04
58739;BME280;44512;53.046;18.604;2023-12-04T06:40:02;102196.25;;;-0.04;68.96
58739;BME280;44512;53.046;18.604;2023-12-04T06:50:30;102193.70;;;-0.05;68.82
58739;BME280;44512;53.046;18.604;2023-12-04T07:00:58;102188.83;;;-0.13;68.55
58739;BME280;44512;53.046;18.604;2023-12-04T07:11:27;102187.30;;;-0.17;68.41
58739;BME280;44512;53.046;18.604;2023-12-04T07:21:55;102180.45;;;-0.21;68.34
58739;BME280;44512;53.046;18.604;2023-12-04T07:32:24;102193.96;;;-0.24;68.28
58739;BME280;44512;53.046;18.604;2023-12-04T07:42:52;102182.27;;;-0.21;68.09
58739;BME280;44512;53.046;18.604;2023-12-04T07:53:24;102187.41;;;-0.18;68.05
58739;BME280;44512;53.046;18.604;2023-12-04T08:03:49;102195.29;;;-0.17;68.03
58739;BME280;44512;53.046;18.604;2023-12-04T08:14:18;102196.34;;;-0.19;67.87
58739;BME280;44512;53.046;18.604;2023-12-04T08:24:46;102207.84;;;-0.19;67.84
58739;BME280;44512;53.046;18.604;2023-12-04T08:35:14;102202.31;;;-0.16;67.71
58739;BME280;44512;53.046;18.604;2023-12-04T08:45:43;102230.46;;;-0.12;67.65
58739;BME280;44512;53.046;18.604;2023-12-04T08:56:11;102236.73;;;-0.13;67.54
58739;BME280;44512;53.046;18.604;2023-12-04T09:06:40;102239.97;;;-0.08;67.53
58739;BME280;44512;53.046;18.604;2023-12-04T09:17:09;102226.19;;;-0.14;67.39
58739;BME280;44512;53.046;18.604;2023-12-04T09:27:36;102233.52;;;-0.04;67.34
58739;BME280;44512;53.046;18.604;2023-12-04T09:38:05;102232.38;;;0.01;67.32
58739;BME280;44512;53.046;18.604;2023-12-04T09:48:34;102235.90;;;0.01;67.19
58739;BME280;44512;53.046;18.604;2023-12-04T09:59:05;102226.84;;;0.04;67.10
58739;BME280;44512;53.046;18.604;2023-12-04T10:09:30;102231.14;;;0.06;67.09
58739;BME280;44512;53.046;18.604;2023-12-04T10:20:14;102222.87;;;0.11;67.30
58739;BME280;44512;53.046;18.604;2023-12-04T10:30:28;102228.09;;;0.12;67.19
58739;BME280;44512;53.046;18.604;2023-12-04T10:40:56;102212.11;;;0.12;67.19
58739;BME280;44512;53.046;18.604;2023-12-04T10:51:25;102218.29;;;0.13;67.21
58739;BME280;44512;53.046;18.604;2023-12-04T11:01:54;102215.23;;;0.19;67.98
58739;BME280;44512;53.046;18.604;2023-12-04T11:12:23;102212.46;;;0.35;68.24
58739;BME280;44512;53.046;18.604;2023-12-04T11:22:50;102206.35;;;0.47;67.95
58739;BME280;44512;53.046;18.604;2023-12-04T11:33:18;102192.53;;;0.55;67.60
58739;BME280;44512;53.046;18.604;2023-12-04T11:48:50;102193.27;;;0.57;67.14
58739;BME280;44512;53.046;18.604;2023-12-04T11:59:18;102170.06;;;0.59;67.05
58739;BME280;44512;53.046;18.604;2023-12-04T12:09:46;102163.88;;;0.58;66.95
58739;BME280;44512;53.046;18.604;2023-12-04T12:20:15;102157.59;;;0.59;66.92
58739;BME280;44512;53.046;18.604;2023-12-04T12:30:44;102165.39;;;0.62;66.89
58739;BME280;44512;53.046;18.604;2023-12-04T12:41:12;102147.78;;;0.60;66.78
58739;BME280;44512;53.046;18.604;2023-12-04T12:51:40;102132.76;;;0.59;66.79
58739;BME280;44512;53.046;18.604;2023-12-04T13:02:09;102143.41;;;0.59;66.69
58739;BME280;44512;53.046;18.604;2023-12-04T13:12:37;102126.58;;;0.58;66.61
58739;BME280;44512;53.046;18.604;2023-12-04T13:23:06;102133.50;;;0.61;66.51
58739;BME280;44512;53.046;18.604;2023-12-04T13:33:34;102117.51;;;0.61;66.45
58739;BME280;44512;53.046;18.604;2023-12-04T13:44:03;102120.95;;;0.63;66.23
58739;BME280;44512;53.046;18.604;2023-12-04T13:54:31;102115.51;;;0.64;66.01
58739;BME280;44512;53.046;18.604;2023-12-04T14:04:59;102113.15;;;0.60;65.80
58739;BME280;44512;53.046;18.604;2023-12-04T14:15:28;102103.75;;;0.54;65.66
58739;BME280;44512;53.046;18.604;2023-12-04T14:25:56;102095.50;;;0.44;65.42
58739;BME280;44512;53.046;18.604;2023-12-04T14:36:25;102106.27;;;0.43;65.30
58739;BME280;44512;53.046;18.604;2023-12-04T14:46:53;102107.53;;;0.37;65.20
58739;BME280;44512;53.046;18.604;2023-12-04T14:57:22;102114.20;;;0.30;65.09
58739;BME280;44512;53.046;18.604;2023-12-04T15:07:50;102112.23;;;0.19;64.99
58739;BME280;44512;53.046;18.604;2023-12-04T15:18:19;102107.42;;;0.12;64.83
58739;BME280;44512;53.046;18.604;2023-12-04T15:28:48;102100.02;;;0.03;64.77
58739;BME280;44512;53.046;18.604;2023-12-04T15:39:16;102108.30;;;-0.02;64.64
58739;BME280;44512;53.046;18.604;2023-12-04T15:49:45;102095.56;;;-0.11;64.50
58739;BME280;44512;53.046;18.604;2023-12-04T16:00:14;102089.80;;;-0.18;64.28
58739;BME280;44512;53.046;18.604;2023-12-04T16:10:42;102095.05;;;-0.31;63.46
58739;BME280;44512;53.046;18.604;2023-12-04T16:21:10;102092.28;;;-0.43;63.41
58739;BME280;44512;53.046;18.604;2023-12-04T16:31:39;102084.30;;;-0.58;62.34
58739;BME280;44512;53.046;18.604;2023-12-04T16:42:07;102074.82;;;-0.76;61.72
58739;BME280;44512;53.046;18.604;2023-12-04T16:52:36;102072.31;;;-0.93;61.01
58739;BME280;44512;53.046;18.604;2023-12-04T17:03:04;102074.60;;;-1.01;60.75
58739;BME280;44512;53.046;18.604;2023-12-04T17:13:33;102077.91;;;-1.12;60.21
58739;BME280;44512;53.046;18.604;2023-12-04T17:24:02;102079.50;;;-1.24;60.34
58739;BME280;44512;53.046;18.604;2023-12-04T17:34:30;102093.23;;;-1.32;60.59
58739;BME280;44512;53.046;18.604;2023-12-04T17:44:59;102076.97;;;-1.41;60.60
58739;BME280;44512;53.046;18.604;2023-12-04T17:55:27;102074.09;;;-1.52;60.54
58739;BME280;44512;53.046;18.604;2023-12-04T18:05:56;102080.63;;;-1.58;60.89
58739;BME280;44512;53.046;18.604;2023-12-04T18:16:24;102081.63;;;-1.61;61.38
58739;BME280;44512;53.046;18.604;2023-12-04T18:26:53;102074.88;;;-1.66;61.12
58739;BME280;44512;53.046;18.604;2023-12-04T18:37:23;102066.59;;;-1.76;61.05
58739;BME280;44512;53.046;18.604;2023-12-04T18:58:19;102046.07;;;-1.88;60.31
58739;BME280;44512;53.046;18.604;2023-12-04T19:08:47;102057.03;;;-1.94;60.77
58739;BME280;44512;53.046;18.604;2023-12-04T19:19:16;102044.97;;;-2.00;60.55
58739;BME280;44512;53.046;18.604;2023-12-04T19:29:44;102032.12;;;-2.07;60.24
58739;BME280;44512;53.046;18.604;2023-12-04T19:40:13;102041.48;;;-2.16;60.19
58739;BME280;44512;53.046;18.604;2023-12-04T19:50:41;102027.88;;;-2.26;60.03
58739;BME280;44512;53.046;18.604;2023-12-04T20:01:10;102025.38;;;-2.29;60.17
58739;BME280;44512;53.046;18.604;2023-12-04T20:11:38;102022.13;;;-2.34;60.37
58739;BME280;44512;53.046;18.604;2023-12-04T20:22:07;102044.45;;;-2.38;60.43
58739;BME280;44512;53.046;18.604;2023-12-04T20:32:35;102039.59;;;-2.46;60.20
58739;BME280;44512;53.046;18.604;2023-12-04T20:43:04;102035.83;;;-2.57;60.08
58739;BME280;44512;53.046;18.604;2023-12-04T20:53:33;102026.41;;;-2.63;60.27
58739;BME280;44512;53.046;18.604;2023-12-04T21:04:01;102015.11;;;-2.67;60.44
58739;BME280;44512;53.046;18.604;2023-12-04T21:14:30;102011.09;;;-2.74;60.46
58739;BME280;44512;53.046;18.604;2023-12-04T21:24:58;102016.45;;;-2.75;60.33
58739;BME280;44512;53.046;18.604;2023-12-04T21:35:27;102008.93;;;-2.83;60.20
58739;BME280;44512;53.046;18.604;2023-12-04T21:45:56;102004.03;;;-2.91;60.04
58739;BME280;44512;53.046;18.604;2023-12-04T21:56:24;101990.60;;;-3.03;59.87
58739;BME280;44512;53.046;18.604;2023-12-04T22:06:53;101993.49;;;-3.08;59.75
58739;BME280;44512;53.046;18.604;2023-12-04T22:17:21;101992.79;;;-3.11;60.03
58739;BME280;44512;53.046;18.604;2023-12-04T22:27:50;101992.79;;;-3.11;60.41
58739;BME280;44512;53.046;18.604;2023-12-04T22:38:19;101975.04;;;-3.09;60.67
58739;BME280;44512;53.046;18.604;2023-12-04T22:48:47;101967.01;;;-3.08;61.01
58739;BME280;44512;53.046;18.604;2023-12-04T22:59:16;101957.27;;;-3.07;61.20
58739;BME280;44512;53.046;18.604;2023-12-04T23:09:44;101950.27;;;-3.08;61.28
58739;BME280;44512;53.046;18.604;2023-12-04T23:20:13;101940.66;;;-3.11;61.21
58739;BME280;44512;53.046;18.604;2023-12-04T23:30:41;101927.66;;;-3.16;61.31
58739;BME280;44512;53.046;18.604;2023-12-04T23:41:10;101922.70;;;-3.22;61.19
58739;BME280;44512;53.046;18.604;2023-12-04T23:51:38;101917.76;;;-3.28;61.25
